Time;durP1;ratioP1;P1;durP2;ratioP2;P2;SDS_P1;SDS_P2;PMS_P1;PMS_P2;Temp;Humidity;BMP_temperature;BMP_pressure;BME280_temperature;BME280_humidity;BME280_pressure;Samples;Min_cycle;Max_cycle;Signal;HPM_P1;HPM_P2
2022/09/30 12:02:52;;;;;;;2.42;1.75;;;;;;;21.16;56.13;100815.88;5071789;22;20808;-75
2022/09/30 12:05:36;;;;;;;3.10;2.25;;;;;;;19.71;59.33;100817.41;5066942;28;20032;-76
2022/09/30 12:08:05;;;;;;;2.88;2.63;;;;;;;19.12;62.93;100818.31;5052068;28;20056;-76
2022/09/30 12:10:38;;;;;;;3.10;3.00;;;;;;;19.78;60.39;100797.81;5052262;28;20033;-75
2022/09/30 12:13:11;;;;;;;4.03;3.47;;;;;;;18.73;63.27;100797.69;5051230;28;20108;-75
2022/09/30 12:15:40;;;;;;;3.03;2.90;;;;;;;19.01;63.10;100805.53;5049620;28;20368;-75
2022/09/30 12:18:24;;;;;;;3.72;3.53;;;;;;;18.20;65.58;100777.88;5052371;28;20502;-74
2022/09/30 12:20:57;;;;;;;4.18;3.97;;;;;;;19.48;62.64;100795.59;5061750;28;20068;-76
2022/09/30 12:23:31;;;;;;;4.03;3.80;;;;;;;19.62;60.42;100791.88;5066044;28;20044;-76
2022/09/30 12:25:58;;;;;;;4.07;3.88;;;;;;;19.37;61.33;100786.34;5053214;28;20023;-76
2022/09/30 12:31:21;;;;;;;3.95;3.67;;;;;;;20.20;59.31;100787.50;5063223;28;20040;-76
2022/09/30 12:34:06;;;;;;;4.18;3.92;;;;;;;19.93;59.96;100787.66;5055935;28;20033;-75
2022/09/30 12:37:02;;;;;;;3.92;3.63;;;;;;;20.31;59.22;100779.59;5061854;28;20021;-75
2022/09/30 12:40:03;;;;;;;3.90;3.05;;;;;;;20.20;59.22;100777.59;5052904;28;20480;-76
2022/09/30 12:42:57;;;;;;;3.13;2.97;;;;;;;20.25;59.17;100775.13;5053903;28;20051;-75
2022/09/30 12:45:40;;;;;;;2.58;2.47;;;;;;;20.68;59.98;100779.78;5051998;28;20028;-75
2022/09/30 12:48:14;;;;;;;3.15;2.95;;;;;;;21.52;56.59;100769.50;5064231;28;20044;-76
2022/09/30 12:50:52;;;;;;;2.53;2.42;;;;;;;19.84;59.05;100768.31;5059019;28;20027;-77
2022/09/30 12:53:23;;;;;;;2.67;2.47;;;;;;;19.02;61.42;100780.44;5075085;28;20048;-77
2022/09/30 12:55:50;;;;;;;2.88;2.67;;;;;;;20.39;58.19;100764.31;5055037;28;20450;-76
2022/09/30 12:58:23;;;;;;;1.75;1.65;;;;;;;19.93;56.89;100756.31;5092498;28;20027;-76
2022/09/30 13:01:14;;;;;;;2.38;2.25;;;;;;;18.92;59.85;100740.75;5080746;28;20099;-77
2022/09/30 13:04:02;;;;;;;2.70;2.60;;;;;;;18.35;63.40;100764.34;5077234;28;20043;-77
2022/09/30 13:06:47;;;;;;;3.45;3.13;;;;;;;18.27;63.77;100761.91;5073453;28;20051;-77
2022/09/30 13:09:15;;;;;;;3.53;3.33;;;;;;;18.08;64.51;100763.47;5074500;28;20017;-76
2022/09/30 13:11:45;;;;;;;4.63;4.43;;;;;;;17.90;65.34;100748.03;5074357;28;20029;-76
2022/09/30 13:14:42;;;;;;;6.85;6.55;;;;;;;17.53;66.87;100752.78;5058408;28;20029;-76
2022/09/30 13:17:07;;;;;;;9.80;9.43;;;;;;;17.38;68.15;100749.44;5045803;28;20032;-76
2022/09/30 13:19:43;;;;;;;9.77;9.35;;;;;;;17.02;68.04;100755.75;5064425;28;20048;-76
2022/09/30 13:22:29;;;;;;;12.80;12.30;;;;;;;16.99;69.81;100748.16;5058973;28;20032;-76
2022/09/30 13:25:03;;;;;;;13.63;13.13;;;;;;;16.93;68.85;100741.75;5050095;28;20051;-76
2022/09/30 13:27:42;;;;;;;19.33;18.63;;;;;;;16.76;70.04;100751.00;5059863;28;20749;-76
2022/09/30 13:30:17;;;;;;;24.20;23.23;;;;;;;16.66;70.23;100744.19;5058365;28;20082;-76
2022/09/30 13:32:46;;;;;;;26.00;25.05;;;;;;;16.65;69.80;100742.53;5063793;28;20032;-76
2022/09/30 13:35:31;;;;;;;30.00;28.92;;;;;;;16.62;69.71;100737.59;5065040;28;20029;-76
2022/09/30 13:38:11;;;;;;;26.45;25.23;;;;;;;16.55;69.35;100731.38;5068674;28;20543;-76
2022/09/30 13:41:01;;;;;;;34.75;32.53;;;;;;;16.74;71.26;100740.53;5064246;28;20040;-76
2022/09/30 13:43:37;;;;;;;35.60;34.20;;;;;;;16.58;70.83;100731.00;5071037;28;20036;-76
2022/09/30 13:46:28;;;;;;;40.90;39.40;;;;;;;16.63;70.79;100714.44;5055382;28;20078;-76
2022/09/30 13:48:58;;;;;;;47.55;45.80;;;;;;;16.53;71.04;100716.63;5058040;28;20273;-76
2022/09/30 13:51:26;;;;;;;44.47;42.75;;;;;;;16.32;70.70;100720.94;5056453;28;20017;-76
2022/09/30 13:53:57;;;;;;;56.20;54.10;;;;;;;15.95;71.87;100722.81;5059010;28;20028;-76
2022/09/30 13:56:31;;;;;;;46.85;45.05;;;;;;;15.98;70.99;100716.28;5056377;28;20055;-76
2022/09/30 13:59:24;;;;;;;48.17;46.38;;;;;;;16.05;71.63;100714.53;5057260;28;20028;-76
2022/09/30 14:02:10;;;;;;;49.97;48.05;;;;;;;15.72;73.20;100717.66;5058534;28;20055;-77
2022/09/30 14:04:36;;;;;;;56.33;54.17;;;;;;;15.72;73.89;100708.81;5059877;28;20651;-76
2022/09/30 14:07:15;;;;;;;72.47;69.45;;;;;;;15.62;74.61;100699.28;5058472;28;20025;-76
2022/09/30 14:09:58;;;;;;;66.97;64.28;;;;;;;15.82;75.28;100707.53;5058138;28;20028;-76
2022/09/30 14:13:01;;;;;;;75.82;73.03;;;;;;;15.88;73.22;100713.94;5061628;28;20052;-76
2022/09/30 14:16:05;;;;;;;62.13;59.47;;;;;;;16.02;74.44;100699.75;5058487;28;20449;-76
2022/09/30 14:18:52;;;;;;;68.03;65.40;;;;;;;15.93;73.43;100684.09;5059294;28;20024;-76
2022/09/30 14:21:35;;;;;;;54.58;52.47;;;;;;;16.07;72.35;100693.88;5059943;28;20549;-76
2022/09/30 14:24:16;;;;;;;62.83;60.42;;;;;;;16.33;73.10;100701.28;5060172;28;20391;-76
2022/09/30 14:26:47;;;;;;;63.08;60.70;;;;;;;16.30;72.20;100704.31;5074061;28;20170;-76
2022/09/30 14:29:50;;;;;;;65.15;62.47;;;;;;;16.08;73.72;100692.03;5068015;28;20028;-76
2022/09/30 14:32:19;;;;;;;65.82;63.30;;;;;;;16.19;74.28;100689.66;5070862;28;20025;-75
2022/09/30 14:34:46;;;;;;;64.47;60.60;;;;;;;16.11;75.16;100694.31;5067520;28;20028;-76
2022/09/30 14:37:29;;;;;;;57.20;55.00;;;;;;;15.64;73.62;100691.94;5063348;28;20432;-76
2022/09/30 14:39:55;;;;;;;51.22;49.17;;;;;;;15.44;72.98;100672.28;5068688;28;20024;-76
2022/09/30 14:42:35;;;;;;;56.60;54.10;;;;;;;15.47;73.33;100677.22;5066781;28;20111;-76
2022/09/30 14:45:03;;;;;;;51.75;49.75;;;;;;;15.43;73.67;100683.91;5070846;28;20028;-76
2022/09/30 14:47:41;;;;;;;60.13;57.45;;;;;;;15.43;73.14;100678.59;5068636;28;20120;-76
2022/09/30 14:50:15;;;;;;;68.72;65.75;;;;;;;15.58;75.23;100670.59;5069050;28;20078;-76
2022/09/30 14:52:46;;;;;;;66.65;64.05;;;;;;;15.55;75.62;100677.09;5062647;28;20036;-76
2022/09/30 14:55:20;;;;;;;;;;;;;;;15.44;76.30;100664.28;5056226;28;20029;-76
2022/09/30 14:57:46;;;;;;;60.53;58.03;;;;;;;15.29;77.00;100660.84;5055164;28;20684;-74
2022/09/30 15:00:30;;;;;;;65.53;62.97;;;;;;;15.20;76.51;100652.13;5052633;28;20032;-75
2022/09/30 15:02:56;;;;;;;66.60;63.65;;;;;;;15.25;76.82;100656.91;5064410;28;20052;-75
2022/09/30 15:05:22;;;;;;;67.45;64.15;;;;;;;15.01;75.83;100649.00;5056687;28;20036;-75
2022/09/30 15:07:48;;;;;;;67.50;64.60;;;;;;;15.07;76.88;100663.41;5060378;28;20028;-75
2022/09/30 15:10:20;;;;;;;68.63;65.97;;;;;;;15.14;78.00;100659.00;5079710;28;20104;-75
2022/09/30 15:12:49;;;;;;;71.13;67.30;;;;;;;15.23;77.85;100659.72;5053630;28;20093;-75
2022/09/30 15:15:32;;;;;;;63.65;61.08;;;;;;;15.31;77.68;100656.97;5051827;28;20021;-75
2022/09/30 15:17:58;;;;;;;64.63;61.20;;;;;;;15.36;78.14;100651.09;5057058;28;20465;-76
2022/09/30 15:20:27;;;;;;;62.72;60.10;;;;;;;15.31;77.83;100642.84;5054904;28;20115;-76
2022/09/30 15:22:53;;;;;;;71.53;67.35;;;;;;;15.33;77.09;100657.63;5054063;28;20547;-75
2022/09/30 15:25:20;;;;;;;73.80;70.72;;;;;;;15.23;76.42;100649.91;5059877;28;20056;-76
2022/09/30 15:27:48;;;;;;;69.68;66.82;;;;;;;15.11;76.56;100643.44;5045429;28;20061;-76
2022/09/30 15:30:14;;;;;;;73.22;70.40;;;;;;;15.03;77.11;100651.50;5053786;28;20041;-75
2022/09/30 15:32:40;;;;;;;67.93;64.97;;;;;;;15.03;77.55;100651.50;5051438;28;20024;-75
2022/09/30 15:35:07;;;;;;;69.63;66.53;;;;;;;14.94;77.79;100657.94;5058240;28;20071;-75
2022/09/30 15:37:32;;;;;;;69.60;66.82;;;;;;;14.87;77.33;100651.66;5061270;28;21129;-76
2022/09/30 15:43:01;;;;;;;62.70;60.20;;;;;;;14.88;78.57;100653.34;5051746;28;20118;-75
2022/09/30 15:45:35;;;;;;;59.42;57.03;;;;;;;14.83;78.50;100653.88;5051675;28;20116;-75
2022/09/30 15:48:04;;;;;;;58.20;55.92;;;;;;;14.81;79.36;100659.38;5054889;28;20029;-77
2022/09/30 15:50:42;;;;;;;62.28;59.78;;;;;;;14.74;80.28;100653.16;5048125;28;20029;-75
2022/09/30 15:53:21;;;;;;;62.97;60.35;;;;;;;14.72;79.90;100665.78;5047202;28;20468;-75
2022/09/30 15:55:48;;;;;;;60.10;56.92;;;;;;;14.77;80.05;100660.75;5055525;28;20031;-76
2022/09/30 15:58:36;;;;;;;56.92;54.67;;;;;;;14.72;79.78;100665.78;5058209;28;20379;-76
2022/09/30 16:01:18;;;;;;;59.53;56.70;;;;;;;14.68;79.73;100661.84;5054937;28;20021;-75
2022/09/30 16:03:56;;;;;;;65.32;62.65;;;;;;;14.63;79.11;100672.16;5048206;28;20037;-75
2022/09/30 16:06:30;;;;;;;66.00;63.30;;;;;;;14.55;79.27;100661.63;5056203;28;20059;-75
2022/09/30 16:09:00;;;;;;;57.53;55.17;;;;;;;14.57;80.04;100670.25;5057069;28;20484;-75
2022/09/30 16:11:39;;;;;;;63.05;60.65;;;;;;;14.63;79.62;100677.47;5065023;28;20408;-75
2022/09/30 16:14:09;;;;;;;56.53;54.33;;;;;;;14.69;79.30;100666.13;5061600;28;20036;-75
2022/09/30 16:16:36;;;;;;;67.82;65.13;;;;;;;14.69;79.35;100666.13;5071398;28;20040;-75
2022/09/30 16:19:03;;;;;;;56.70;54.35;;;;;;;14.65;79.53;100666.69;5068809;28;20028;-75
2022/09/30 16:21:46;;;;;;;64.00;61.20;;;;;;;14.64;80.15;100667.69;5065869;28;20020;-76
2022/09/30 16:24:20;;;;;;;55.40;53.28;;;;;;;14.47;80.90;100666.97;5068822;28;20059;-75
2022/09/30 16:26:45;;;;;;;53.95;51.65;;;;;;;14.33;81.63;100658.81;5070406;28;20130;-76
2022/09/30 16:29:11;;;;;;;51.67;49.63;;;;;;;14.26;82.04;100659.69;5072611;28;20037;-77
2022/09/30 16:31:36;;;;;;;51.20;49.13;;;;;;;14.17;82.05;100653.63;5071874;28;20036;-76
2022/09/30 16:34:01;;;;;;;46.08;44.15;;;;;;;13.93;82.82;100636.88;5067731;28;20700;-76
2022/09/30 16:36:27;;;;;;;41.95;39.97;;;;;;;14.01;83.63;100654.59;5063380;28;20044;-76
2022/09/30 16:38:52;;;;;;;37.90;36.20;;;;;;;13.96;84.37;100655.13;5056996;28;20067;-76
2022/09/30 16:41:18;;;;;;;35.58;34.03;;;;;;;13.94;84.46;100653.66;5057466;28;20448;-76
2022/09/30 16:43:43;;;;;;;33.45;31.85;;;;;;;13.81;84.58;100654.22;5053974;28;20037;-76
2022/09/30 16:46:09;;;;;;;33.42;31.20;;;;;;;13.71;85.28;100650.97;5049205;28;20139;-76
2022/09/30 16:48:34;;;;;;;36.92;35.03;;;;;;;13.62;84.85;100649.38;5056410;28;20110;-76
2022/09/30 16:51:06;;;;;;;30.40;29.00;;;;;;;13.61;85.11;100650.34;5059843;28;20768;-76
2022/09/30 16:53:33;;;;;;;36.55;34.75;;;;;;;13.56;85.75;100653.53;5061701;28;20814;-76
2022/09/30 16:55:59;;;;;;;33.17;31.50;;;;;;;13.51;84.96;100646.09;5072569;28;20075;-76
2022/09/30 16:58:25;;;;;;;32.03;30.33;;;;;;;13.52;85.73;100641.63;5062278;28;20490;-75
2022/09/30 17:00:51;;;;;;;35.85;33.95;;;;;;;13.44;86.32;100639.03;5061082;28;20032;-75
2022/09/30 17:03:17;;;;;;;36.75;34.88;;;;;;;13.35;86.36;100619.69;5060411;28;20131;-75
2022/09/30 17:05:45;;;;;;;36.13;34.47;;;;;;;13.29;86.66;100615.09;5060427;28;20077;-76
2022/09/30 17:08:14;;;;;;;35.20;33.50;;;;;;;13.44;87.25;100631.91;5062485;28;20091;-75
2022/09/30 17:10:42;;;;;;;35.20;33.55;;;;;;;13.30;87.17;100627.31;5055022;28;20044;-75
2022/09/30 17:13:08;;;;;;;36.90;35.10;;;;;;;13.27;87.08;100625.00;5059700;28;20480;-75
2022/09/30 17:15:36;;;;;;;34.53;33.03;;;;;;;13.15;87.15;100604.19;5053887;28;20033;-76
2022/09/30 17:18:06;;;;;;;30.77;29.33;;;;;;;13.27;86.86;100612.56;5070194;28;20032;-75
2022/09/30 17:20:32;;;;;;;33.10;31.60;;;;;;;13.14;87.57;100591.91;5066407;28;20017;-75
2022/09/30 17:22:57;;;;;;;33.00;31.35;;;;;;;13.14;86.92;100605.16;5060925;28;20507;-76
2022/09/30 17:25:23;;;;;;;32.15;30.60;;;;;;;13.11;87.28;100613.47;5046540;28;20028;-75
2022/09/30 17:27:51;;;;;;;30.55;29.10;;;;;;;13.06;86.86;100610.50;5062787;28;20116;-76
2022/09/30 17:30:18;;;;;;;32.40;31.00;;;;;;;13.00;87.50;100608.56;5068721;28;20043;-75
2022/09/30 17:32:44;;;;;;;33.05;31.55;;;;;;;12.94;87.81;100617.19;5076179;28;20029;-76
2022/09/30 17:35:10;;;;;;;31.40;29.90;;;;;;;12.87;87.34;100606.44;5070490;28;20035;-75
2022/09/30 17:37:35;;;;;;;34.80;33.00;;;;;;;12.84;88.33;100605.97;5067377;28;20040;-75
2022/09/30 17:43:06;;;;;;;31.15;29.65;;;;;;;12.69;88.42;100593.41;5069425;28;20034;-76
2022/09/30 17:43:06;;;;;;;35.05;33.47;;;;;;;12.70;88.39;100603.03;5070148;28;20051;-75
2022/09/30 17:45:32;;;;;;;37.83;35.92;;;;;;;12.54;89.09;100590.66;5060948;28;20020;-75
2022/09/30 17:47:58;;;;;;;36.28;34.58;;;;;;;12.63;89.51;100598.56;5067808;28;20504;-75
2022/09/30 17:50:23;;;;;;;40.33;37.70;;;;;;;12.55;89.75;100602.06;5060757;28;20063;-75
2022/09/30 17:52:49;;;;;;;40.75;38.35;;;;;;;12.53;90.22;100598.75;5058078;28;20678;-75
2022/09/30 17:55:14;;;;;;;34.78;32.67;;;;;;;12.51;90.68;100598.91;5073288;28;20027;-75
2022/09/30 17:57:39;;;;;;;38.42;36.72;;;;;;;12.45;90.08;100596.13;5060642;28;20066;-74
2022/09/30 18:00:05;;;;;;;37.78;36.00;;;;;;;12.40;90.43;100593.97;5064472;28;20035;-76
2022/09/30 18:02:31;;;;;;;34.80;33.13;;;;;;;12.37;90.79;100599.63;5048480;28;20049;-75
2022/09/30 18:04:56;;;;;;;37.55;35.55;;;;;;;12.21;91.68;100573.16;5039251;28;20550;-75
2022/09/30 18:07:22;;;;;;;42.50;40.35;;;;;;;12.23;91.52;100581.75;5043267;28;20032;-76
2022/09/30 18:09:48;;;;;;;41.15;39.00;;;;;;;12.20;91.73;100590.06;5063931;28;20036;-75
2022/09/30 18:12:13;;;;;;;42.80;40.83;;;;;;;12.08;92.03;100584.25;5070059;28;20033;-75
2022/09/30 18:14:38;;;;;;;40.35;38.33;;;;;;;12.10;92.77;100598.16;5043239;28;20040;-75
2022/09/30 18:17:05;;;;;;;38.58;36.97;;;;;;;12.04;92.85;100594.38;5053657;28;20029;-76
2022/09/30 18:19:31;;;;;;;42.00;40.33;;;;;;;11.97;93.71;100597.81;5054247;28;20020;-75
2022/09/30 18:21:56;;;;;;;40.40;38.70;;;;;;;11.90;93.46;100593.19;5053594;28;20091;-75
2022/09/30 18:25:18;;;;;;;40.92;39.25;;;;;;;11.78;94.55;100589.19;5054015;28;20037;-74
2022/09/30 18:27:08;;;;;;;43.65;41.53;;;;;;;11.72;93.77;100566.06;5054106;28;20032;-74
2022/09/30 18:29:33;;;;;;;40.80;39.17;;;;;;;11.84;94.33;100591.16;5058796;28;20036;-75
2022/09/30 18:31:59;;;;;;;39.33;37.72;;;;;;;11.64;94.25;100558.09;5050229;28;20035;-75
2022/09/30 18:34:24;;;;;;;40.22;38.47;;;;;;;11.74;95.34;100578.09;5034141;28;20774;-76
2022/09/30 18:36:50;;;;;;;37.90;36.40;;;;;;;11.67;94.97;100579.78;5058049;28;20025;-76
2022/09/30 18:39:15;;;;;;;36.88;35.28;;;;;;;11.57;95.33;100576.44;5065054;28;20040;-75
2022/09/30 18:41:42;;;;;;;36.92;35.42;;;;;;;11.47;96.91;100576.56;5068545;28;20040;-76
2022/09/30 18:44:08;;;;;;;36.95;35.42;;;;;;;11.26;97.16;100549.81;5072113;28;20131;-76
2022/09/30 18:46:34;;;;;;;35.25;33.75;;;;;;;11.30;97.49;100570.44;5073527;28;20055;-76
2022/09/30 18:49:00;;;;;;;27.52;26.33;;;;;;;11.24;98.42;100568.44;5073901;28;20893;-75
2022/09/30 18:51:26;;;;;;;26.52;25.23;;;;;;;11.20;99.13;100558.38;5073532;28;20098;-75
2022/09/30 18:53:54;;;;;;;27.00;25.63;;;;;;;11.18;99.16;100552.41;5073069;28;20577;-75
2022/09/30 18:56:21;;;;;;;26.13;24.83;;;;;;;11.15;98.92;100550.06;5075007;28;20086;-75
2022/09/30 18:58:48;;;;;;;27.73;26.58;;;;;;;11.09;99.11;100535.72;5069000;28;20038;-76
2022/09/30 19:01:13;;;;;;;25.15;23.75;;;;;;;11.02;99.76;100530.25;5069628;28;20074;-75
2022/09/30 19:03:38;;;;;;;25.25;24.05;;;;;;;11.00;100.00;100537.50;5053847;28;20298;-74
2022/09/30 19:06:08;;;;;;;23.70;22.48;;;;;;;10.83;99.93;100499.66;5067710;28;20045;-76
2022/09/30 19:08:34;;;;;;;22.23;21.13;;;;;;;10.98;100.00;100518.34;5069395;28;20032;-75
2022/09/30 19:11:04;;;;;;;23.20;22.20;;;;;;;10.96;100.00;100522.97;5041708;28;20019;-76
2022/09/30 19:13:30;;;;;;;18.30;17.45;;;;;;;10.91;100.00;100520.00;5080528;28;20495;-76
2022/09/30 19:16:01;;;;;;;21.27;20.30;;;;;;;10.87;100.00;100516.84;5068430;28;20020;-76
2022/09/30 19:18:30;;;;;;;20.08;19.17;;;;;;;10.91;100.00;100512.06;5058694;28;20138;-76
2022/09/30 19:20:55;;;;;;;19.48;18.55;;;;;;;10.90;100.00;100507.75;5053182;28;20029;-75
2022/09/30 19:23:20;;;;;;;24.48;23.40;;;;;;;10.88;100.00;100504.44;5061441;28;20492;-75
2022/09/30 19:25:52;;;;;;;23.60;22.10;;;;;;;10.81;100.00;100495.53;5070889;28;20110;-75
2022/09/30 19:28:21;;;;;;;26.27;25.05;;;;;;;10.86;100.00;100498.50;5073470;28;20037;-75
2022/09/30 19:30:47;;;;;;;27.63;26.30;;;;;;;10.78;100.00;100485.28;5068598;28;20513;-76
2022/09/30 19:33:12;;;;;;;30.15;28.92;;;;;;;10.87;100.00;100489.63;5071642;28;20036;-76
2022/09/30 19:35:38;;;;;;;34.22;32.78;;;;;;;10.87;100.00;100489.63;5068458;28;20086;-76
2022/09/30 19:38:04;;;;;;;33.33;31.85;;;;;;;10.69;100.00;100461.50;5070329;28;20119;-75
2022/09/30 19:40:30;;;;;;;29.52;28.20;;;;;;;10.90;100.00;100486.66;5050535;28;20226;-75
2022/09/30 19:42:56;;;;;;;32.47;30.98;;;;;;;10.89;100.00;100487.66;5069784;28;20028;-75
2022/09/30 19:45:23;;;;;;;33.33;31.73;;;;;;;10.88;100.00;100470.13;5072991;28;20582;-76
2022/09/30 19:47:49;;;;;;;32.95;31.58;;;;;;;10.92;100.00;100479.38;5050528;28;20052;-75
2022/09/30 19:50:14;;;;;;;34.85;33.25;;;;;;;10.96;100.00;100477.25;5061681;28;20485;-75
2022/09/30 19:52:40;;;;;;;35.20;33.67;;;;;;;10.98;100.00;100470.00;5055212;28;20029;-75
2022/09/30 19:55:07;;;;;;;35.15;33.55;;;;;;;10.99;100.00;100464.53;5064994;28;20777;-75
2022/09/30 19:57:32;;;;;;;29.70;27.85;;;;;;;10.99;100.00;100455.81;5062205;28;20037;-75
2022/09/30 19:59:58;;;;;;;30.85;29.50;;;;;;;10.98;100.00;100457.63;5062697;28;20920;-76
2022/09/30 20:02:23;;;;;;;30.63;29.33;;;;;;;10.91;100.00;100430.22;5062614;28;20048;-75
2022/09/30 20:04:50;;;;;;;27.08;25.88;;;;;;;11.01;100.00;100444.09;5059032;28;20111;-76
2022/09/30 20:07:15;;;;;;;26.15;24.92;;;;;;;11.05;100.00;100441.97;5072205;28;20040;-75
2022/09/30 20:09:41;;;;;;;29.10;27.90;;;;;;;11.04;100.00;100443.78;5071964;28;20039;-76
2022/09/30 20:12:07;;;;;;;28.45;27.15;;;;;;;11.08;100.00;100438.97;5076101;28;20403;-76
2022/09/30 20:17:17;;;;;;;27.25;26.20;;;;;;;11.08;100.00;100423.97;5067045;28;20468;-76
2022/09/30 20:19:42;;;;;;;32.00;30.63;;;;;;;11.11;100.00;100436.84;5063582;28;20029;-76
2022/09/30 20:22:08;;;;;;;25.92;24.92;;;;;;;11.14;100.00;100416.38;5055217;28;20657;-75
2022/09/30 20:24:33;;;;;;;27.17;25.88;;;;;;;11.15;100.00;100413.59;5061627;28;20553;-76
2022/09/30 20:26:59;;;;;;;30.67;29.02;;;;;;;11.18;99.97;100404.50;5062120;28;20484;-76
2022/09/30 20:29:25;;;;;;;33.30;31.83;;;;;;;11.07;100.00;100384.53;5061689;28;20032;-77
2022/09/30 20:31:51;;;;;;;29.95;28.75;;;;;;;11.23;100.00;100405.63;5061883;28;20016;-75
2022/09/30 20:34:18;;;;;;;32.88;31.48;;;;;;;11.27;99.25;100400.88;5061685;28;20040;-74
2022/09/30 20:36:44;;;;;;;41.22;39.63;;;;;;;11.29;99.04;100404.16;5059765;28;20042;-75
2022/09/30 20:39:10;;;;;;;42.92;41.22;;;;;;;11.32;99.14;100394.09;5066896;28;20024;-74
2022/09/30 20:41:37;;;;;;;46.55;44.78;;;;;;;11.36;99.22;100393.75;5057760;28;20407;-75
2022/09/30 20:44:12;;;;;;;50.45;48.45;;;;;;;11.44;97.39;100391.94;5069042;28;20025;-75
2022/09/30 20:46:40;;;;;;;59.50;57.22;;;;;;;11.50;96.74;100386.00;5061234;28;20233;-74
2022/09/30 20:49:06;;;;;;;56.97;54.45;;;;;;;11.57;96.22;100382.69;5059186;28;20020;-75
2022/09/30 20:51:31;;;;;;;65.78;63.15;;;;;;;11.63;96.12;100376.72;5059882;28;20021;-75
2022/09/30 20:53:58;;;;;;;73.28;69.50;;;;;;;11.68;95.61;100382.31;5060093;28;20564;-75
2022/09/30 20:56:26;;;;;;;61.60;59.28;;;;;;;11.74;95.47;100379.84;5068111;28;20115;-74
2022/09/30 20:58:52;;;;;;;73.93;71.20;;;;;;;11.80;94.55;100375.69;5060024;28;20432;-75
2022/09/30 21:01:19;;;;;;;61.13;58.80;;;;;;;11.87;93.09;100376.66;5061657;28;20075;-75
2022/09/30 21:03:49;;;;;;;66.20;63.72;;;;;;;11.80;93.01;100356.34;5057060;28;20120;-74
2022/09/30 21:06:16;;;;;;;52.03;50.00;;;;;;;11.94;92.50;100366.25;5066105;28;20102;-77
2022/09/30 21:08:41;;;;;;;60.10;57.60;;;;;;;11.95;91.69;100367.88;5061637;28;20036;-74
2022/09/30 21:11:10;;;;;;;52.95;51.00;;;;;;;11.90;91.82;100344.59;5046771;28;20064;-74
2022/09/30 21:13:39;;;;;;;44.33;42.53;;;;;;;11.89;92.16;100342.97;5057730;28;20025;-74
2022/09/30 21:16:05;;;;;;;42.45;40.80;;;;;;;11.89;91.47;100342.97;5061968;28;20067;-75
2022/09/30 21:18:31;;;;;;;43.08;41.40;;;;;;;12.04;91.82;100355.47;5060180;28;20108;-75
2022/09/30 21:20:58;;;;;;;39.10;37.45;;;;;;;11.93;91.53;100339.00;5057696;28;20066;-76
2022/09/30 21:23:25;;;;;;;38.85;37.20;;;;;;;12.03;90.90;100348.53;5065556;28;20391;-74
2022/09/30 21:25:57;;;;;;;35.03;33.55;;;;;;;12.06;91.29;100349.03;5056468;28;20021;-74
2022/09/30 21:28:22;;;;;;;36.53;35.03;;;;;;;12.04;90.44;100345.72;5062242;28;20595;-75
2022/09/30 21:30:48;;;;;;;38.33;36.53;;;;;;;12.01;90.67;100350.53;5054474;28;20025;-75
2022/09/30 21:33:13;;;;;;;31.80;30.50;;;;;;;12.05;90.60;100352.66;5058512;28;20491;-75
2022/09/30 21:35:38;;;;;;;33.40;32.13;;;;;;;12.05;91.35;100346.53;5057570;28;20438;-75
2022/09/30 21:38:04;;;;;;;35.80;33.63;;;;;;;12.06;91.35;100342.91;5058357;28;21218;-74
2022/09/30 21:40:30;;;;;;;32.30;31.00;;;;;;;12.05;91.05;100349.19;5060895;28;20048;-74
2022/09/30 21:42:57;;;;;;;42.28;40.55;;;;;;;12.02;90.43;100344.22;5067728;28;20491;-74
2022/09/30 21:45:24;;;;;;;38.00;36.35;;;;;;;12.05;90.28;100347.38;5061501;28;20099;-74
2022/09/30 21:47:49;;;;;;;33.17;31.75;;;;;;;12.05;89.81;100336.78;5061027;28;20091;-75
2022/09/30 21:50:14;;;;;;;35.33;33.88;;;;;;;12.07;89.83;100328.69;5050175;28;20033;-75
2022/09/30 21:52:40;;;;;;;28.55;27.35;;;;;;;12.09;90.07;100326.69;5063970;28;20020;-75
2022/09/30 21:55:06;;;;;;;29.08;27.98;;;;;;;12.07;89.63;100326.84;5054436;28;20033;-75
2022/09/30 21:57:31;;;;;;;28.77;27.67;;;;;;;11.95;90.56;100312.34;5059457;28;20024;-76
2022/09/30 21:59:57;;;;;;;30.60;29.40;;;;;;;12.05;90.34;100322.75;5046880;28;20562;-75
2022/09/30 22:02:22;;;;;;;33.22;31.88;;;;;;;12.05;90.08;100320.09;5057076;28;20124;-75
2022/09/30 22:04:47;;;;;;;30.30;28.90;;;;;;;12.05;89.12;100322.75;5066988;28;20029;-75
2022/09/30 22:07:14;;;;;;;41.20;39.33;;;;;;;11.90;89.99;100302.28;5062609;28;20115;-75
2022/09/30 22:09:40;;;;;;;29.90;28.63;;;;;;;12.09;90.28;100316.13;5054998;28;20118;-75
2022/09/30 22:12:07;;;;;;;26.15;25.15;;;;;;;11.90;89.80;100286.44;5060904;28;20401;-77
2022/09/30 22:14:34;;;;;;;33.92;32.53;;;;;;;12.01;90.91;100310.84;5056916;28;20033;-74
2022/09/30 22:17:00;;;;;;;34.08;32.47;;;;;;;11.90;91.31;100302.28;5056527;28;20029;-74
2022/09/30 22:19:25;;;;;;;31.98;30.70;;;;;;;12.01;91.79;100318.78;5041860;28;20399;-74
2022/09/30 22:21:50;;;;;;;40.22;38.65;;;;;;;11.94;92.57;100314.19;5060717;28;20597;-74
2022/09/30 22:24:16;;;;;;;51.55;49.60;;;;;;;11.77;93.70;100302.00;5060213;28;20468;-75
2022/09/30 22:26:42;;;;;;;56.30;54.17;;;;;;;11.75;95.09;100314.56;5040585;28;20094;-76
2022/09/30 22:29:10;;;;;;;53.33;51.15;;;;;;;11.65;95.35;100311.28;5065921;28;20043;-76
2022/09/30 22:31:36;;;;;;;57.08;54.97;;;;;;;11.57;97.45;100316.59;5061255;28;20025;-75
2022/09/30 22:39:33;;;;;;;54.45;52.35;;;;;;;11.26;100.00;100304.13;5061032;28;20376;-75
2022/09/30 22:41:59;;;;;;;48.60;46.67;;;;;;;11.23;100.00;100307.09;5056608;28;20036;-75
2022/09/30 22:44:31;;;;;;;45.70;43.90;;;;;;;11.24;100.00;100332.53;5060754;28;20029;-75
2022/09/30 22:46:58;;;;;;;45.72;43.95;;;;;;;11.15;100.00;100322.94;5058223;28;20029;-76
2022/09/30 22:49:24;;;;;;;36.55;35.17;;;;;;;11.06;100.00;100322.97;5057230;28;20490;-75
2022/09/30 22:51:54;;;;;;;30.90;29.60;;;;;;;10.98;100.00;100315.03;5058093;28;20143;-75
2022/09/30 22:54:21;;;;;;;29.98;28.77;;;;;;;10.83;100.00;100292.94;5056807;28;20101;-74
2022/09/30 22:56:49;;;;;;;28.23;26.38;;;;;;;10.79;100.00;100318.81;5058673;28;20112;-75
2022/09/30 22:59:15;;;;;;;27.52;26.25;;;;;;;10.65;100.00;100308.94;5055937;28;20039;-76
2022/09/30 23:01:40;;;;;;;30.10;28.80;;;;;;;10.67;100.00;100314.88;5051570;28;20053;-74
2022/09/30 23:04:06;;;;;;;33.00;31.52;;;;;;;10.62;100.00;100307.41;5045685;28;20404;-76
2022/09/30 23:06:32;;;;;;;28.02;26.92;;;;;;;10.56;100.00;100309.88;5039675;28;20024;-76
2022/09/30 23:08:57;;;;;;;27.73;26.52;;;;;;;10.52;100.00;100312.06;5056100;28;20063;-75
2022/09/30 23:11:22;;;;;;;26.35;25.25;;;;;;;10.47;100.00;100314.31;5051543;28;20579;-75
2022/09/30 23:13:49;;;;;;;26.83;25.73;;;;;;;10.43;100.00;100305.09;5056278;28;20037;-75
2022/09/30 23:16:16;;;;;;;39.78;38.17;;;;;;;10.35;100.00;100292.72;5049802;28;20037;-75
2022/09/30 23:18:45;;;;;;;30.08;28.83;;;;;;;10.39;100.00;100307.25;5051945;28;20040;-75
2022/09/30 23:21:13;;;;;;;30.35;29.05;;;;;;;10.33;100.00;100293.88;5049532;28;20112;-75
2022/09/30 23:23:39;;;;;;;35.13;33.63;;;;;;;10.17;100.00;100261.19;5046702;28;20465;-75
2022/09/30 23:26:10;;;;;;;37.30;35.70;;;;;;;10.25;100.00;100279.63;5039113;28;20060;-76
2022/09/30 23:28:35;;;;;;;31.13;29.67;;;;;;;10.25;100.00;100279.63;5049157;28;20020;-76
2022/09/30 23:31:04;;;;;;;35.33;33.63;;;;;;;10.12;100.00;100265.28;5047033;28;20086;-75
2022/09/30 23:33:29;;;;;;;35.78;34.15;;;;;;;10.16;100.00;100264.78;5059109;28;20056;-75
2022/09/30 23:35:55;;;;;;;35.90;34.40;;;;;;;10.05;100.00;100252.72;5057964;28;20876;-75
2022/09/30 23:38:27;;;;;;;30.77;29.42;;;;;;;10.05;100.00;100252.72;5047854;28;20116;-75